sensor_id;sensor_type;location;lat;lon;timestamp;pressure;altitude;pressure_sealevel;temperature;humidity
61870;BME280;47810;42.264;23.826;2022-11-20T00:02:24;93291.75;;;11.49;81.65
61870;BME280;47810;42.264;23.826;2022-11-20T00:04:50;93280.09;;;11.62;81.37
61870;BME280;47810;42.264;23.826;2022-11-20T00:07:15;93285.50;;;11.61;80.84
61870;BME280;47810;42.264;23.826;2022-11-20T00:09:41;93285.72;;;11.80;80.71
61870;BME280;47810;42.264;23.826;2022-11-20T00:12:06;93284.28;;;11.76;80.67
61870;BME280;47810;42.264;23.826;2022-11-20T00:14:32;93279.75;;;11.78;79.57
61870;BME280;47810;42.264;23.826;2022-11-20T00:16:58;93279.50;;;11.70;80.09
61870;BME280;47810;42.264;23.826;2022-11-20T00:19:24;93285.75;;;11.58;80.17
61870;BME280;47810;42.264;23.826;2022-11-20T00:21:49;93291.84;;;11.81;80.07
61870;BME280;47810;42.264;23.826;2022-11-20T00:24:16;93286.56;;;11.58;80.00
61870;BME280;47810;42.264;23.826;2022-11-20T00:26:42;93280.19;;;11.83;80.52
61870;BME280;47810;42.264;23.826;2022-11-20T00:29:08;93283.66;;;11.84;79.79
61870;BME280;47810;42.264;23.826;2022-11-20T00:31:34;93271.78;;;11.67;80.46
61870;BME280;47810;42.264;23.826;2022-11-20T00:34:00;93270.84;;;11.57;80.26
61870;BME280;47810;42.264;23.826;2022-11-20T00:36:26;93278.28;;;11.63;80.72
61870;BME280;47810;42.264;23.826;2022-11-20T00:38:53;93274.06;;;11.49;81.44
61870;BME280;47810;42.264;23.826;2022-11-20T00:41:19;93263.63;;;11.48;81.51
61870;BME280;47810;42.264;23.826;2022-11-20T00:43:44;93266.41;;;11.69;80.97
61870;BME280;47810;42.264;23.826;2022-11-20T00:46:15;93260.72;;;11.62;80.99
61870;BME280;47810;42.264;23.826;2022-11-20T00:48:41;93250.88;;;11.75;80.32
61870;BME280;47810;42.264;23.826;2022-11-20T00:51:06;93251.59;;;11.55;80.21
61870;BME280;47810;42.264;23.826;2022-11-20T00:53:32;93241.28;;;11.63;80.29
61870;BME280;47810;42.264;23.826;2022-11-20T00:56:01;93252.81;;;11.73;79.78
61870;BME280;47810;42.264;23.826;2022-11-20T00:58:31;93250.41;;;11.59;79.38
61870;BME280;47810;42.264;23.826;2022-11-20T01:01:05;93245.38;;;11.56;80.07
61870;BME280;47810;42.264;23.826;2022-11-20T01:03:35;93240.81;;;11.47;80.56
61870;BME280;47810;42.264;23.826;2022-11-20T01:06:04;93271.06;;;11.76;80.89
61870;BME280;47810;42.264;23.826;2022-11-20T01:08:34;93262.91;;;11.57;81.26
61870;BME280;47810;42.264;23.826;2022-11-20T01:11:01;93248.72;;;11.35;81.97
61870;BME280;47810;42.264;23.826;2022-11-20T01:13:27;93246.06;;;11.58;81.32
61870;BME280;47810;42.264;23.826;2022-11-20T01:16:08;93240.44;;;11.51;80.96
61870;BME280;47810;42.264;23.826;2022-11-20T01:18:35;93242.72;;;11.67;80.65
61870;BME280;47810;42.264;23.826;2022-11-20T01:21:02;93235.50;;;11.69;80.71
61870;BME280;47810;42.264;23.826;2022-11-20T01:23:30;93217.25;;;11.66;80.12
61870;BME280;47810;42.264;23.826;2022-11-20T01:25:55;93211.22;;;11.86;79.76
61870;BME280;47810;42.264;23.826;2022-11-20T01:28:21;93208.81;;;11.72;79.68
61870;BME280;47810;42.264;23.826;2022-11-20T01:30:47;93206.28;;;11.71;79.63
61870;BME280;47810;42.264;23.826;2022-11-20T01:33:12;93218.81;;;11.46;80.42
61870;BME280;47810;42.264;23.826;2022-11-20T01:35:38;93229.00;;;11.17;81.78
61870;BME280;47810;42.264;23.826;2022-11-20T01:38:03;93204.06;;;11.21;80.59
61870;BME280;47810;42.264;23.826;2022-11-20T01:40:29;93217.25;;;11.21;80.79
61870;BME280;47810;42.264;23.826;2022-11-20T01:42:59;93208.38;;;11.11;81.20
61870;BME280;47810;42.264;23.826;2022-11-20T01:48:15;93224.22;;;11.11;80.97
61870;BME280;47810;42.264;23.826;2022-11-20T01:50:42;93218.84;;;11.24;81.19
61870;BME280;47810;42.264;23.826;2022-11-20T01:53:09;93228.78;;;11.20;80.98
61870;BME280;47810;42.264;23.826;2022-11-20T01:55:37;93232.84;;;11.13;80.86
61870;BME280;47810;42.264;23.826;2022-11-20T01:58:05;93219.88;;;10.99;81.54
61870;BME280;47810;42.264;23.826;2022-11-20T02:00:31;93212.69;;;11.12;81.45
61870;BME280;47810;42.264;23.826;2022-11-20T02:02:57;93201.38;;;11.32;80.98
61870;BME280;47810;42.264;23.826;2022-11-20T02:05:29;93199.72;;;11.31;81.01
61870;BME280;47810;42.264;23.826;2022-11-20T02:07:57;93179.31;;;11.22;81.53
61870;BME280;47810;42.264;23.826;2022-11-20T02:10:24;93165.34;;;11.42;80.76
61870;BME280;47810;42.264;23.826;2022-11-20T02:12:50;93168.81;;;11.54;80.18
61870;BME280;47810;42.264;23.826;2022-11-20T02:15:34;93153.94;;;11.53;80.04
61870;BME280;47810;42.264;23.826;2022-11-20T02:18:00;93144.66;;;11.59;79.69
61870;BME280;47810;42.264;23.826;2022-11-20T02:20:27;93143.94;;;11.57;79.55
61870;BME280;47810;42.264;23.826;2022-11-20T02:23:03;93130.34;;;11.61;78.59
61870;BME280;47810;42.264;23.826;2022-11-20T02:25:30;93134.22;;;12.01;75.34
61870;BME280;47810;42.264;23.826;2022-11-20T02:27:58;93132.09;;;12.16;74.63
61870;BME280;47810;42.264;23.826;2022-11-20T02:30:23;93130.16;;;12.18;74.94
61870;BME280;47810;42.264;23.826;2022-11-20T02:32:49;93123.53;;;12.23;74.80
61870;BME280;47810;42.264;23.826;2022-11-20T02:37:44;93145.34;;;12.37;74.83
61870;BME280;47810;42.264;23.826;2022-11-20T02:40:10;93146.00;;;12.50;75.06
61870;BME280;47810;42.264;23.826;2022-11-20T02:42:36;93145.34;;;12.37;75.16
61870;BME280;47810;42.264;23.826;2022-11-20T02:45:03;93148.50;;;12.30;75.63
61870;BME280;47810;42.264;23.826;2022-11-20T02:47:29;93163.28;;;12.12;76.59
61870;BME280;47810;42.264;23.826;2022-11-20T02:49:55;93175.44;;;12.03;76.39
61870;BME280;47810;42.264;23.826;2022-11-20T02:52:20;93176.63;;;11.56;77.60
61870;BME280;47810;42.264;23.826;2022-11-20T02:54:46;93167.13;;;11.53;77.77
61870;BME280;47810;42.264;23.826;2022-11-20T02:57:12;93164.50;;;11.42;78.33
61870;BME280;47810;42.264;23.826;2022-11-20T02:59:38;93166.47;;;11.95;76.96
61870;BME280;47810;42.264;23.826;2022-11-20T03:02:04;93181.50;;;11.94;77.22
61870;BME280;47810;42.264;23.826;2022-11-20T03:04:30;93171.69;;;11.85;77.06
61870;BME280;47810;42.264;23.826;2022-11-20T03:06:55;93171.25;;;12.01;77.48
61870;BME280;47810;42.264;23.826;2022-11-20T03:09:21;93177.75;;;11.97;77.39
61870;BME280;47810;42.264;23.826;2022-11-20T03:11:46;93183.09;;;11.85;77.30
61870;BME280;47810;42.264;23.826;2022-11-20T03:14:12;93190.63;;;11.90;77.63
61870;BME280;47810;42.264;23.826;2022-11-20T03:16:38;93204.19;;;12.08;77.02
61870;BME280;47810;42.264;23.826;2022-11-20T03:19:03;93207.97;;;11.94;77.45
61870;BME280;47810;42.264;23.826;2022-11-20T03:21:29;93203.00;;;12.01;77.76
61870;BME280;47810;42.264;23.826;2022-11-20T03:23:55;93193.94;;;12.15;76.60
61870;BME280;47810;42.264;23.826;2022-11-20T03:26:22;93193.53;;;12.51;74.36
61870;BME280;47810;42.264;23.826;2022-11-20T03:28:51;93185.69;;;12.29;75.28
61870;BME280;47810;42.264;23.826;2022-11-20T03:31:18;93203.09;;;12.43;75.02
61870;BME280;47810;42.264;23.826;2022-11-20T03:33:44;93197.72;;;12.54;75.06
61870;BME280;47810;42.264;23.826;2022-11-20T03:36:12;93208.91;;;12.57;73.41
61870;BME280;47810;42.264;23.826;2022-11-20T03:38:38;93221.31;;;12.57;73.47
61870;BME280;47810;42.264;23.826;2022-11-20T03:41:04;93215.03;;;12.58;73.81
61870;BME280;47810;42.264;23.826;2022-11-20T03:43:30;93233.41;;;12.39;74.61
61870;BME280;47810;42.264;23.826;2022-11-20T03:45:56;93228.59;;;12.44;75.15
61870;BME280;47810;42.264;23.826;2022-11-20T03:48:21;93245.38;;;12.54;74.75
61870;BME280;47810;42.264;23.826;2022-11-20T03:50:47;93247.88;;;12.34;75.25
61870;BME280;47810;42.264;23.826;2022-11-20T03:53:16;93248.94;;;12.43;74.97
61870;BME280;47810;42.264;23.826;2022-11-20T03:55:42;93259.47;;;12.22;75.72
61870;BME280;47810;42.264;23.826;2022-11-20T03:58:07;93250.25;;;12.17;76.26
61870;BME280;47810;42.264;23.826;2022-11-20T04:00:33;93252.50;;;12.21;76.45
61870;BME280;47810;42.264;23.826;2022-11-20T04:02:59;93248.88;;;12.22;76.20
61870;BME280;47810;42.264;23.826;2022-11-20T04:05:25;93245.97;;;12.37;75.93
61870;BME280;47810;42.264;23.826;2022-11-20T04:07:50;93233.03;;;12.11;76.46
61870;BME280;47810;42.264;23.826;2022-11-20T04:10:16;93236.28;;;12.15;76.76
61870;BME280;47810;42.264;23.826;2022-11-20T04:12:41;93224.09;;;12.23;75.80
61870;BME280;47810;42.264;23.826;2022-11-20T04:15:07;93235.47;;;12.35;75.48
61870;BME280;47810;42.264;23.826;2022-11-20T04:17:33;93230.66;;;12.08;75.89
61870;BME280;47810;42.264;23.826;2022-11-20T04:19:58;93229.75;;;12.30;75.39
61870;BME280;47810;42.264;23.826;2022-11-20T04:22:24;93236.78;;;12.41;75.50
61870;BME280;47810;42.264;23.826;2022-11-20T04:24:49;93230.56;;;12.30;75.57
61870;BME280;47810;42.264;23.826;2022-11-20T04:27:15;93227.16;;;12.40;75.04
61870;BME280;47810;42.264;23.826;2022-11-20T04:29:41;93236.28;;;12.47;74.69
61870;BME280;47810;42.264;23.826;2022-11-20T04:32:07;93232.06;;;12.44;74.86
61870;BME280;47810;42.264;23.826;2022-11-20T04:34:32;93233.88;;;12.44;75.16
61870;BME280;47810;42.264;23.826;2022-11-20T04:36:58;93229.84;;;12.28;75.35
61870;BME280;47810;42.264;23.826;2022-11-20T04:39:23;93230.56;;;12.30;75.40
61870;BME280;47810;42.264;23.826;2022-11-20T04:41:49;93218.69;;;12.25;75.36
61870;BME280;47810;42.264;23.826;2022-11-20T04:44:34;93207.66;;;12.41;74.83
61870;BME280;47810;42.264;23.826;2022-11-20T04:47:00;93212.06;;;12.51;74.65
61870;BME280;47810;42.264;23.826;2022-11-20T04:49:25;93220.19;;;12.39;75.26
61870;BME280;47810;42.264;23.826;2022-11-20T04:51:54;93202.75;;;12.36;74.96
61870;BME280;47810;42.264;23.826;2022-11-20T04:54:19;93197.28;;;12.49;71.92
61870;BME280;47810;42.264;23.826;2022-11-20T04:56:48;93204.78;;;12.86;69.68
61870;BME280;47810;42.264;23.826;2022-11-20T04:59:14;93207.09;;;13.00;68.78
61870;BME280;47810;42.264;23.826;2022-11-20T05:01:40;93220.34;;;12.79;71.53
61870;BME280;47810;42.264;23.826;2022-11-20T05:04:05;93227.75;;;12.64;72.44
61870;BME280;47810;42.264;23.826;2022-11-20T05:06:31;93221.44;;;12.76;72.41
61870;BME280;47810;42.264;23.826;2022-11-20T05:08:57;93209.81;;;12.68;72.66
61870;BME280;47810;42.264;23.826;2022-11-20T05:11:22;93214.16;;;12.69;73.06
61870;BME280;47810;42.264;23.826;2022-11-20T05:13:48;93210.38;;;12.50;73.61
61870;BME280;47810;42.264;23.826;2022-11-20T05:16:15;93213.56;;;12.65;73.51
61870;BME280;47810;42.264;23.826;2022-11-20T05:18:41;93217.31;;;12.63;73.49
61870;BME280;47810;42.264;23.826;2022-11-20T05:21:07;93231.25;;;12.44;74.22
61870;BME280;47810;42.264;23.826;2022-11-20T05:23:33;93230.00;;;12.48;74.65
61870;BME280;47810;42.264;23.826;2022-11-20T05:25:59;93228.78;;;12.20;75.05
61870;BME280;47810;42.264;23.826;2022-11-20T05:28:26;93225.94;;;12.44;74.73
61870;BME280;47810;42.264;23.826;2022-11-20T05:30:52;93233.81;;;12.23;75.43
61870;BME280;47810;42.264;23.826;2022-11-20T05:33:18;93228.69;;;12.10;76.42
61870;BME280;47810;42.264;23.826;2022-11-20T05:35:43;93221.25;;;12.15;76.26
61870;BME280;47810;42.264;23.826;2022-11-20T05:38:09;93227.03;;;12.09;76.25
61870;BME280;47810;42.264;23.826;2022-11-20T05:40:35;93229.16;;;12.26;76.01
61870;BME280;47810;42.264;23.826;2022-11-20T05:43:01;93214.53;;;12.64;74.38
61870;BME280;47810;42.264;23.826;2022-11-20T05:45:27;93216.66;;;12.70;73.61
61870;BME280;47810;42.264;23.826;2022-11-20T05:47:52;93218.41;;;12.39;74.68
61870;BME280;47810;42.264;23.826;2022-11-20T05:50:18;93210.13;;;12.74;73.87
61870;BME280;47810;42.264;23.826;2022-11-20T05:52:43;93210.84;;;12.55;74.43
61870;BME280;47810;42.264;23.826;2022-11-20T05:55:09;93221.44;;;12.55;75.00
61870;BME280;47810;42.264;23.826;2022-11-20T05:57:34;93229.47;;;12.65;75.11
61870;BME280;47810;42.264;23.826;2022-11-20T06:00:00;93236.28;;;12.47;75.39
61870;BME280;47810;42.264;23.826;2022-11-20T06:02:26;93232.88;;;12.56;75.33
61870;BME280;47810;42.264;23.826;2022-11-20T06:04:51;93244.16;;;12.58;74.64
61870;BME280;47810;42.264;23.826;2022-11-20T06:07:17;93249.09;;;12.63;75.17
61870;BME280;47810;42.264;23.826;2022-11-20T06:09:42;93268.22;;;12.66;75.09
61870;BME280;47810;42.264;23.826;2022-11-20T06:12:08;93271.38;;;12.60;75.36
61870;BME280;47810;42.264;23.826;2022-11-20T06:14:34;93269.63;;;12.49;75.06
61870;BME280;47810;42.264;23.826;2022-11-20T06:16:59;93268.72;;;12.60;74.76
61870;BME280;47810;42.264;23.826;2022-11-20T06:19:25;93277.97;;;12.66;74.89
61870;BME280;47810;42.264;23.826;2022-11-20T06:21:50;93275.59;;;12.51;75.53
61870;BME280;47810;42.264;23.826;2022-11-20T06:24:16;93266.03;;;12.71;74.55
61870;BME280;47810;42.264;23.826;2022-11-20T06:26:42;93261.44;;;12.73;74.71
61870;BME280;47810;42.264;23.826;2022-11-20T06:29:08;93250.16;;;13.13;74.12
61870;BME280;47810;42.264;23.826;2022-11-20T06:31:34;93254.34;;;12.95;74.39
61870;BME280;47810;42.264;23.826;2022-11-20T06:34:04;93256.66;;;13.09;74.69
61870;BME280;47810;42.264;23.826;2022-11-20T06:36:30;93256.88;;;13.17;74.64
61870;BME280;47810;42.264;23.826;2022-11-20T06:38:56;93245.94;;;12.90;74.89
61870;BME280;47810;42.264;23.826;2022-11-20T06:41:23;93246.78;;;13.11;75.08
61870;BME280;47810;42.264;23.826;2022-11-20T06:43:50;93251.75;;;13.04;74.94
61870;BME280;47810;42.264;23.826;2022-11-20T06:46:16;93257.94;;;13.15;74.91
61870;BME280;47810;42.264;23.826;2022-11-20T06:48:42;93259.72;;;13.25;74.41
61870;BME280;47810;42.264;23.826;2022-11-20T06:51:08;93249.75;;;13.39;74.00
61870;BME280;47810;42.264;23.826;2022-11-20T06:53:34;93247.91;;;13.70;72.08
61870;BME280;47810;42.264;23.826;2022-11-20T06:56:00;93244.69;;;13.66;72.21
61870;BME280;47810;42.264;23.826;2022-11-20T06:58:26;93248.22;;;13.77;72.20
61870;BME280;47810;42.264;23.826;2022-11-20T07:00:53;93252.03;;;13.84;71.67
61870;BME280;47810;42.264;23.826;2022-11-20T07:03:18;93253.88;;;13.93;71.23
61870;BME280;47810;42.264;23.826;2022-11-20T07:05:44;93258.63;;;13.99;71.25
61870;BME280;47810;42.264;23.826;2022-11-20T07:08:11;93262.28;;;13.98;71.45
61870;BME280;47810;42.264;23.826;2022-11-20T07:10:37;93267.34;;;14.20;71.83
61870;BME280;47810;42.264;23.826;2022-11-20T07:13:03;93269.28;;;14.09;71.60
61870;BME280;47810;42.264;23.826;2022-11-20T07:15:29;93264.00;;;14.18;71.07
61870;BME280;47810;42.264;23.826;2022-11-20T07:17:55;93265.97;;;14.16;71.37
61870;BME280;47810;42.264;23.826;2022-11-20T07:20:20;93266.69;;;14.38;70.87
61870;BME280;47810;42.264;23.826;2022-11-20T07:22:46;93277.97;;;14.20;70.59
61870;BME280;47810;42.264;23.826;2022-11-20T07:25:12;93279.81;;;14.30;71.04
61870;BME280;47810;42.264;23.826;2022-11-20T07:27:37;93279.28;;;14.36;70.89
61870;BME280;47810;42.264;23.826;2022-11-20T07:30:03;93289.41;;;14.61;70.28
61870;BME280;47810;42.264;23.826;2022-11-20T07:32:29;93288.59;;;14.71;70.22
61870;BME280;47810;42.264;23.826;2022-11-20T07:34:54;93283.41;;;14.79;69.92
61870;BME280;47810;42.264;23.826;2022-11-20T07:37:20;93278.34;;;14.76;70.36
61870;BME280;47810;42.264;23.826;2022-11-20T07:39:45;93286.50;;;14.74;70.73
61870;BME280;47810;42.264;23.826;2022-11-20T07:42:11;93286.75;;;14.81;70.99
61870;BME280;47810;42.264;23.826;2022-11-20T07:44:37;93286.06;;;14.88;70.50
61870;BME280;47810;42.264;23.826;2022-11-20T07:47:03;93271.66;;;14.91;70.37
61870;BME280;47810;42.264;23.826;2022-11-20T07:49:28;93272.47;;;14.91;70.51
61870;BME280;47810;42.264;23.826;2022-11-20T07:51:54;93284.50;;;14.96;70.44
61870;BME280;47810;42.264;23.826;2022-11-20T07:54:20;93279.47;;;15.02;69.91
61870;BME280;47810;42.264;23.826;2022-11-20T07:56:45;93267.72;;;15.05;69.48
61870;BME280;47810;42.264;23.826;2022-11-20T07:59:11;93263.22;;;15.05;69.55
61870;BME280;47810;42.264;23.826;2022-11-20T08:01:37;93279.50;;;15.12;69.91
61870;BME280;47810;42.264;23.826;2022-11-20T08:04:06;93278.78;;;15.10;69.87
61870;BME280;47810;42.264;23.826;2022-11-20T08:06:31;93274.72;;;15.16;68.62
61870;BME280;47810;42.264;23.826;2022-11-20T08:08:57;93274.47;;;14.99;67.89
61870;BME280;47810;42.264;23.826;2022-11-20T08:11:23;93259.63;;;15.06;68.19
61870;BME280;47810;42.264;23.826;2022-11-20T08:14:07;93264.91;;;15.26;68.21
61870;BME280;47810;42.264;23.826;2022-11-20T08:16:39;93270.22;;;15.26;68.16
61870;BME280;47810;42.264;23.826;2022-11-20T08:19:05;93263.22;;;15.34;68.11
61870;BME280;47810;42.264;23.826;2022-11-20T08:21:31;93253.78;;;15.40;67.95
61870;BME280;47810;42.264;23.826;2022-11-20T08:23:57;93252.50;;;15.64;66.68
61870;BME280;47810;42.264;23.826;2022-11-20T08:26:23;93258.94;;;15.71;65.56
61870;BME280;47810;42.264;23.826;2022-11-20T08:28:52;93259.50;;;15.55;66.28
61870;BME280;47810;42.264;23.826;2022-11-20T08:31:18;93249.81;;;15.64;66.88
61870;BME280;47810;42.264;23.826;2022-11-20T08:33:43;93247.13;;;15.83;65.58
61870;BME280;47810;42.264;23.826;2022-11-20T08:36:09;93247.38;;;15.90;65.74
61870;BME280;47810;42.264;23.826;2022-11-20T08:38:34;93245.13;;;15.85;66.32
61870;BME280;47810;42.264;23.826;2022-11-20T08:41:00;93240.22;;;15.90;66.79
61870;BME280;47810;42.264;23.826;2022-11-20T08:43:45;93229.09;;;15.95;66.96
61870;BME280;47810;42.264;23.826;2022-11-20T08:46:10;93220.94;;;16.06;67.58
61870;BME280;47810;42.264;23.826;2022-11-20T08:48:36;93216.84;;;16.29;67.26
61870;BME280;47810;42.264;23.826;2022-11-20T08:51:01;93217.56;;;16.49;66.43
61870;BME280;47810;42.264;23.826;2022-11-20T08:53:27;93218.25;;;16.51;65.93
61870;BME280;47810;42.264;23.826;2022-11-20T08:55:53;93220.00;;;16.61;65.04
61870;BME280;47810;42.264;23.826;2022-11-20T08:58:18;93224.34;;;16.62;65.56
61870;BME280;47810;42.264;23.826;2022-11-20T09:00:44;93214.00;;;16.94;64.16
61870;BME280;47810;42.264;23.826;2022-11-20T09:03:10;93217.28;;;17.32;61.26
61870;BME280;47810;42.264;23.826;2022-11-20T09:05:35;93218.41;;;17.48;59.55
61870;BME280;47810;42.264;23.826;2022-11-20T09:08:01;93221.34;;;17.62;59.08
61870;BME280;47810;42.264;23.826;2022-11-20T09:10:27;93218.16;;;17.67;58.83
61870;BME280;47810;42.264;23.826;2022-11-20T09:12:53;93218.50;;;17.38;60.89
61870;BME280;47810;42.264;23.826;2022-11-20T09:15:21;93225.56;;;17.21;62.00
61870;BME280;47810;42.264;23.826;2022-11-20T09:17:53;93216.28;;;17.33;61.76
61870;BME280;47810;42.264;23.826;2022-11-20T09:20:19;93215.50;;;17.67;60.59
61870;BME280;47810;42.264;23.826;2022-11-20T09:22:44;93205.19;;;17.72;58.95
61870;BME280;47810;42.264;23.826;2022-11-20T09:25:10;93207.78;;;17.90;58.01
61870;BME280;47810;42.264;23.826;2022-11-20T09:27:35;93206.06;;;18.23;60.15
61870;BME280;47810;42.264;23.826;2022-11-20T09:30:01;93208.53;;;18.59;57.49
61870;BME280;47810;42.264;23.826;2022-11-20T09:32:27;93206.91;;;18.91;57.94
61870;BME280;47810;42.264;23.826;2022-11-20T09:34:53;93198.06;;;19.15;56.03
61870;BME280;47810;42.264;23.826;2022-11-20T09:37:19;93199.88;;;19.30;54.94
61870;BME280;47810;42.264;23.826;2022-11-20T09:39:44;93189.31;;;19.53;55.87
61870;BME280;47810;42.264;23.826;2022-11-20T09:52:44;93190.53;;;19.18;52.13
61870;BME280;47810;42.264;23.826;2022-11-20T09:55:06;93190.56;;;19.10;54.42
61870;BME280;47810;42.264;23.826;2022-11-20T09:57:36;93203.22;;;19.41;53.22
61870;BME280;47810;42.264;23.826;2022-11-20T10:00:03;93199.88;;;19.06;53.42
61870;BME280;47810;42.264;23.826;2022-11-20T10:08:01;93194.47;;;18.57;57.02
61870;BME280;47810;42.264;23.826;2022-11-20T10:31:10;93169.41;;;18.58;56.44
61870;BME280;47810;42.264;23.826;2022-11-20T10:33:38;93180.25;;;18.48;56.03
61870;BME280;47810;42.264;23.826;2022-11-20T10:36:16;93150.69;;;18.50;55.87
61870;BME280;47810;42.264;23.826;2022-11-20T10:38:54;93161.56;;;18.56;53.96
61870;BME280;47810;42.264;23.826;2022-11-20T10:41:30;93157.97;;;18.15;57.66
61870;BME280;47810;42.264;23.826;2022-11-20T10:44:04;93162.84;;;18.28;58.09
61870;BME280;47810;42.264;23.826;2022-11-20T10:46:34;93140.81;;;18.42;57.64
61870;BME280;47810;42.264;23.826;2022-11-20T10:49:04;93146.63;;;18.29;57.97
61870;BME280;47810;42.264;23.826;2022-11-20T10:51:31;93148.31;;;18.38;57.45
61870;BME280;47810;42.264;23.826;2022-11-20T10:55:01;93149.97;;;18.23;58.52
61870;BME280;47810;42.264;23.826;2022-11-20T10:57:00;93148.63;;;18.19;58.18
61870;BME280;47810;42.264;23.826;2022-11-20T11:01:57;93161.16;;;17.76;58.66
61870;BME280;47810;42.264;23.826;2022-11-20T11:04:40;93160.47;;;17.74;59.38
61870;BME280;47810;42.264;23.826;2022-11-20T11:07:10;93154.56;;;17.88;59.96
61870;BME280;47810;42.264;23.826;2022-11-20T11:09:48;93143.41;;;17.67;59.56
61870;BME280;47810;42.264;23.826;2022-11-20T11:12:14;93135.59;;;17.39;60.96
61870;BME280;47810;42.264;23.826;2022-11-20T11:14:46;93135.59;;;17.39;61.08
61870;BME280;47810;42.264;23.826;2022-11-20T11:20:14;93124.22;;;17.72;60.30
61870;BME280;47810;42.264;23.826;2022-11-20T11:22:47;93128.41;;;17.74;60.65
61870;BME280;47810;42.264;23.826;2022-11-20T11:25:22;93138.63;;;17.44;60.59
61870;BME280;47810;42.264;23.826;2022-11-20T11:27:48;93148.72;;;17.59;60.80
61870;BME280;47810;42.264;23.826;2022-11-20T11:30:15;93139.66;;;17.43;61.50
61870;BME280;47810;42.264;23.826;2022-11-20T11:32:41;93133.81;;;17.48;61.40
61870;BME280;47810;42.264;23.826;2022-11-20T11:35:18;93131.31;;;17.46;60.87
61870;BME280;47810;42.264;23.826;2022-11-20T11:37:44;93131.50;;;17.79;60.13
61870;BME280;47810;42.264;23.826;2022-11-20T11:40:12;93131.53;;;17.61;58.91
61870;BME280;47810;42.264;23.826;2022-11-20T11:42:42;93129.69;;;17.54;58.09
61870;BME280;47810;42.264;23.826;2022-11-20T11:45:11;93119.53;;;17.65;58.38
61870;BME280;47810;42.264;23.826;2022-11-20T11:55:58;93149.78;;;17.74;60.03
61870;BME280;47810;42.264;23.826;2022-11-20T11:58:01;93157.22;;;17.88;61.38
61870;BME280;47810;42.264;23.826;2022-11-20T12:00:29;93143.38;;;17.93;59.73
61870;BME280;47810;42.264;23.826;2022-11-20T12:05:38;93158.44;;;17.34;59.08
61870;BME280;47810;42.264;23.826;2022-11-20T12:08:09;93165.06;;;17.30;59.90
61870;BME280;47810;42.264;23.826;2022-11-20T12:15:58;93173.69;;;16.97;60.99
61870;BME280;47810;42.264;23.826;2022-11-20T12:18:24;93177.75;;;17.02;60.25
61870;BME280;47810;42.264;23.826;2022-11-20T12:23:24;93178.72;;;17.00;61.04
61870;BME280;47810;42.264;23.826;2022-11-20T12:25:54;93182.44;;;16.72;62.62
61870;BME280;47810;42.264;23.826;2022-11-20T12:28:26;93191.00;;;16.75;63.75
61870;BME280;47810;42.264;23.826;2022-11-20T12:36:06;93208.22;;;16.00;67.79
61870;BME280;47810;42.264;23.826;2022-11-20T12:38:51;93212.22;;;15.86;69.24
61870;BME280;47810;42.264;23.826;2022-11-20T12:52:47;93230.53;;;14.76;74.84
61870;BME280;47810;42.264;23.826;2022-11-20T12:55:16;93237.81;;;14.74;75.49
61870;BME280;47810;42.264;23.826;2022-11-20T13:00:26;93226.72;;;15.07;74.60
61870;BME280;47810;42.264;23.826;2022-11-20T13:08:06;93227.66;;;15.26;75.07
61870;BME280;47810;42.264;23.826;2022-11-20T13:10:43;93232.69;;;15.38;74.14
61870;BME280;47810;42.264;23.826;2022-11-20T13:16:04;93238.47;;;15.61;74.48
61870;BME280;47810;42.264;23.826;2022-11-20T13:18:36;93239.59;;;15.69;74.12
61870;BME280;47810;42.264;23.826;2022-11-20T13:21:12;93232.88;;;15.65;73.71
61870;BME280;47810;42.264;23.826;2022-11-20T13:23:38;93228.94;;;15.69;74.11
61870;BME280;47810;42.264;23.826;2022-11-20T13:26:05;93224.63;;;15.95;74.74
61870;BME280;47810;42.264;23.826;2022-11-20T13:28:31;93207.50;;;15.98;74.44
61870;BME280;47810;42.264;23.826;2022-11-20T13:30:57;93186.91;;;15.63;73.81
61870;BME280;47810;42.264;23.826;2022-11-20T13:36:03;93182.31;;;15.65;74.63
61870;BME280;47810;42.264;23.826;2022-11-20T13:38:39;93192.31;;;15.43;74.45
61870;BME280;47810;42.264;23.826;2022-11-20T13:41:06;93189.56;;;15.35;74.03
61870;BME280;47810;42.264;23.826;2022-11-20T13:43:54;93190.25;;;15.37;74.19
61870;BME280;47810;42.264;23.826;2022-11-20T13:46:19;93183.66;;;15.41;73.84
61870;BME280;47810;42.264;23.826;2022-11-20T13:48:49;93185.88;;;15.46;72.81
61870;BME280;47810;42.264;23.826;2022-11-20T14:01:53;93153.31;;;14.87;74.38
61870;BME280;47810;42.264;23.826;2022-11-20T14:04:21;93148.22;;;15.03;73.69
61870;BME280;47810;42.264;23.826;2022-11-20T14:06:51;93140.69;;;14.89;73.86
61870;BME280;47810;42.264;23.826;2022-11-20T14:09:27;93136.84;;;14.44;75.32
61870;BME280;47810;42.264;23.826;2022-11-20T14:11:53;93143.00;;;14.45;75.17
61870;BME280;47810;42.264;23.826;2022-11-20T14:14:20;93128.03;;;14.25;75.79
61870;BME280;47810;42.264;23.826;2022-11-20T14:16:46;93141.31;;;14.25;75.77
61870;BME280;47810;42.264;23.826;2022-11-20T14:22:06;93141.28;;;13.95;77.06
61870;BME280;47810;42.264;23.826;2022-11-20T14:24:32;93141.03;;;14.08;76.87
61870;BME280;47810;42.264;23.826;2022-11-20T14:26:58;93132.38;;;14.26;76.57
61870;BME280;47810;42.264;23.826;2022-11-20T14:29:27;93122.03;;;14.32;75.83
61870;BME280;47810;42.264;23.826;2022-11-20T14:31:54;93112.25;;;14.23;76.42
61870;BME280;47810;42.264;23.826;2022-11-20T14:34:27;93114.47;;;14.37;75.94
61870;BME280;47810;42.264;23.826;2022-11-20T14:36:58;93113.91;;;14.43;75.52
61870;BME280;47810;42.264;23.826;2022-11-20T14:39:57;93115.03;;;14.31;75.70
61870;BME280;47810;42.264;23.826;2022-11-20T14:42:21;93116.19;;;14.19;76.43